Klickitat, WA

11:47 AM PDT on July 05, 2015 (GMT -0700)
Big Rock Ranch | | Change Station
CLOSE
Current Station
Personal Weather Station
Location: Goldendale, WA
Elevation: 1549 ft
Nearby Weather Stations

Elev 1549 ft 45.85 °N, 120.99 °W | Updated 40 seconds ago

Clear
Clear
89.8 °F
Feels Like 86 °F
N
1.1
Wind Variable Wind from South
Gusts 2.5 mph

Today
High -- | Low -- °F
--% Chance of Precip.
Yesterday
High -- | Low -- °F
Precip. -- in
5:20 AM 8:57 PM
Waning Gibbous, 83% visible
Pressure 29.78 in
Visibility 10.0 miles
Clouds Clear
Heat Index 86 °F
Dew Point 32 °F
Humidity 13%
Rainfall 0.00 in
Snow Depth Not available.
UV 8 out of 12
Pollen 8.30 out of 12
Air Quality Not available.
Flu Activity Not available.
METAR KDLS 051753Z AUTO 33005KT 10SM CLR 32/09 A2978 RMK AO2 SLP082 T03220089 10322 20211 58005

More Conditions Fewer Conditions

Pressure 29.78 in
Visibility 10.0 miles
Clouds Clear
Heat Index 86 °F
Dew Point 32 °F
Humidity 13%
Rainfall 0.00 in
Snow Depth Not available.
UV 8 out of 12
Pollen 8.30 out of 12
Air Quality Not available.
Flu Activity Not available.
METAR KDLS 051753Z AUTO 33005KT 10SM CLR 32/09 A2978 RMK AO2 SLP082 T03220089 10322 20211 58005

More Conditions Fewer Conditions

10-Day Weather Forecast

×

Almanac

Astronomy

Jul. 05, 2015 Rise Set
Actual Time
Civil Twilight
Nautical Twilight
Astronomical Twilight
Moon
Length of Visible Light
Length of Day
Tomorrow will be .
, % of the Moon is Illuminated

Today's Extremes

State Highs State Lows

Community

WunderPhotos

Upload Photos

1,835,346 photos uploaded!

WunderBlogs® & News

Nearby

Air Quality

  Air Quality AQ Index Pollutant
Not available.

Snow Depth

Station Depth Elevation

Earthquake Activity

City Distance Mag. Time & Date
Minimum magnitude displayed is 2.5.

Coastal Water Temperatures

Place Temperature

Stations

Nearby Weather Stations

Station Location Temp. Windchill Dew Point Humidity Wind Precip. Elev Updated Type